Time;durP1;ratioP1;P1;durP2;ratioP2;P2;SDS_P1;SDS_P2;PMS_P1;PMS_P2;Temp;Humidity;BMP_temperature;BMP_pressure;BME280_temperature;BME280_humidity;BME280_pressure;Samples;Min_cycle;Max_cycle;Signal;HPM_P1;HPM_P2
2022/03/15 00:00:27;;;;;;;32.95;21.10;;;;;;;12.09;30.40;101445.84;1976074;98;25715;-77
2022/03/15 00:04:42;;;;;;;30.90;20.05;;;;;;;12.04;30.45;101444.35;1962886;98;25827;-76
2022/03/15 00:07:56;;;;;;;28.62;20.55;;;;;;;12.01;30.47;101432.48;1929927;101;25648;-77
2022/03/15 00:11:23;;;;;;;29.13;19.83;;;;;;;11.99;30.51;101432.45;1924964;100;29595;-77
2022/03/15 00:14:58;;;;;;;32.98;21.73;;;;;;;11.97;30.53;101437.14;1930526;101;25934;-77
2022/03/15 00:18:20;;;;;;;33.15;20.88;;;;;;;11.94;30.57;101439.22;1970393;97;25823;-77
2022/03/15 00:21:47;;;;;;;33.20;21.70;;;;;;;11.91;30.60;101423.85;2015426;96;25880;-77
2022/03/15 00:25:53;;;;;;;32.67;20.90;;;;;;;11.89;30.62;101426.85;2047841;91;25898;-78
2022/03/15 00:29:19;;;;;;;32.30;21.07;;;;;;;11.87;30.66;101425.89;1955554;95;25820;-77
2022/03/15 00:32:41;;;;;;;34.73;21.73;;;;;;;11.84;30.67;101430.59;1949864;99;25582;-76
2022/03/15 00:36:04;;;;;;;35.90;21.62;;;;;;;11.81;30.72;101422.60;2022946;90;25892;-77
2022/03/15 00:39:25;;;;;;;35.85;21.55;;;;;;;11.79;30.74;101420.37;2125006;90;25908;-77
2022/03/15 00:42:54;;;;;;;37.35;21.42;;;;;;;11.76;30.75;101410.70;2123178;90;31704;-76
2022/03/15 00:46:32;;;;;;;34.88;20.40;;;;;;;11.75;30.77;101414.16;2122772;90;26495;-77
2022/03/15 00:49:57;;;;;;;39.42;21.70;;;;;;;11.73;30.80;101420.16;2118523;90;25729;-76
2022/03/15 00:53:37;;;;;;;35.58;21.75;;;;;;;11.70;30.82;101414.39;2124653;90;25688;-77
2022/03/15 00:57:03;;;;;;;35.48;22.98;;;;;;;11.68;30.87;101409.55;2146744;88;25323;-77
2022/03/15 01:00:51;;;;;;;32.67;21.05;;;;;;;11.65;30.88;101410.75;2311345;80;25263;-77
2022/03/15 01:04:26;;;;;;;35.55;22.50;;;;;;;11.63;30.90;101409.80;2379892;80;25613;-78
2022/03/15 01:08:02;;;;;;;35.43;20.73;;;;;;;11.59;30.93;101411.83;2375079;80;25663;-77
2022/03/15 01:11:25;;;;;;;33.98;20.97;;;;;;;11.57;30.96;101410.45;2379029;80;25879;-77
2022/03/15 01:15:22;;;;;;;;;;;;;;;;;;;;;
2022/03/15 01:18:44;;;;;;;35.75;22.20;;;;;;;11.52;31.00;101411.14;2295300;84;25739;-76
2022/03/15 01:22:21;;;;;;;34.33;21.50;;;;;;;11.50;31.04;101404.95;2311136;83;26102;-76
2022/03/15 01:26:10;;;;;;;33.25;21.23;;;;;;;11.47;31.07;101400.51;2183372;89;25747;-75
2022/03/15 01:30:09;;;;;;;;;;;;;;;11.45;31.09;101401.31;2182271;89;25717;-76
2022/03/15 01:37:29;;;;;;;36.45;23.20;;;;;;;11.40;31.12;101395.02;2114421;92;26027;-76
2022/03/15 01:40:51;;;;;;;34.70;21.90;;;;;;;11.37;31.15;101404.04;2116993;91;25923;-76
2022/03/15 01:44:21;;;;;;;41.97;23.77;;;;;;;11.33;31.18;101397.39;2117137;93;31044;-76
2022/03/15 01:47:46;;;;;;;35.48;21.82;;;;;;;11.32;31.22;101399.55;2115617;92;25700;-76
2022/03/15 01:51:08;;;;;;;38.17;22.55;;;;;;;11.30;31.25;101395.09;2114483;92;25659;-76
2022/03/15 01:54:47;;;;;;;40.15;23.67;;;;;;;11.27;31.27;101395.89;2121378;92;25882;-76
2022/03/15 01:58:15;;;;;;;36.90;22.93;;;;;;;11.24;31.32;101396.20;2131958;92;30999;-76
2022/03/15 02:01:55;;;;;;;35.80;22.95;;;;;;;11.21;31.33;101400.88;2139703;89;25784;-77
2022/03/15 02:05:43;;;;;;;35.68;22.45;;;;;;;11.19;31.34;101406.86;2130013;91;26623;-77
2022/03/15 02:09:23;;;;;;;;;;;;;;;11.16;31.37;101402.41;2127886;90;25959;-77
2022/03/15 02:12:43;;;;;;;;;;;;;;;11.12;31.42;101395.30;2135378;90;25296;-77
2022/03/15 02:16:22;;;;;;;34.73;22.43;;;;;;;11.08;31.42;101388.20;2184668;88;35377;-77
2022/03/15 02:19:48;;;;;;;41.35;24.90;;;;;;;11.05;31.42;101391.58;2185606;89;34844;-77
2022/03/15 02:23:08;;;;;;;33.70;22.65;;;;;;;11.03;31.44;101388.42;2164224;89;25728;-77
2022/03/15 02:26:29;;;;;;;36.83;23.42;;;;;;;11.01;31.48;101390.99;2181532;90;31689;-76
2022/03/15 02:29:53;;;;;;;40.85;23.75;;;;;;;10.99;31.51;101393.06;2234226;87;25725;-76
2022/03/15 02:33:25;;;;;;;37.90;24.02;;;;;;;10.96;31.53;101376.87;2233241;86;25904;-76
2022/03/15 02:36:53;;;;;;;40.15;22.77;;;;;;;10.95;31.55;101389.45;2237056;88;25753;-77
2022/03/15 02:40:21;;;;;;;38.40;22.50;;;;;;;10.92;31.57;101388.03;2233262;87;25657;-76
2022/03/15 02:44:07;;;;;;;37.50;23.55;;;;;;;10.90;31.61;101380.58;2270137;85;25785;-75
2022/03/15 02:47:30;;;;;;;36.53;21.87;;;;;;;10.88;31.61;101398.77;2327180;83;25778;-76
2022/03/15 02:51:10;;;;;;;41.70;24.45;;;;;;;10.85;31.63;101382.09;2327717;83;25599;-76
2022/03/15 02:54:54;;;;;;;48.38;25.08;;;;;;;10.82;31.65;101389.81;2298269;84;25341;-77
2022/03/15 02:58:44;;;;;;;35.83;22.87;;;;;;;10.79;31.69;101388.38;2297733;84;25663;-79
2022/03/15 03:02:14;;;;;;;39.80;24.23;;;;;;;10.75;31.72;101399.53;2149528;90;25771;-77
2022/03/15 03:05:42;;;;;;;44.77;26.12;;;;;;;10.71;31.76;101389.39;2147876;91;26096;-77
2022/03/15 03:13:01;;;;;;;40.58;23.60;;;;;;;10.67;31.78;101392.72;2082450;93;25760;-78
2022/03/15 03:16:35;;;;;;;40.23;24.07;;;;;;;10.64;31.80;101394.78;2082747;93;25692;-79
2022/03/15 03:20:21;;;;;;;43.73;24.37;;;;;;;10.63;31.80;101393.40;2085106;92;25712;-77
2022/03/15 03:23:53;;;;;;;36.88;23.55;;;;;;;10.60;31.83;101397.22;1991174;93;25838;-75
2022/03/15 03:27:42;;;;;;;37.98;23.10;;;;;;;10.59;31.85;101413.67;2012210;96;25897;-78
2022/03/15 03:31:41;;;;;;;;;;;;;;;;;;;;;
2022/03/15 03:35:25;;;;;;;40.40;23.02;;;;;;;10.54;31.90;101405.68;1980700;97;25739;-77
2022/03/15 03:38:59;;;;;;;39.75;22.82;;;;;;;10.53;31.89;101396.47;2040638;94;25761;-77
2022/03/15 03:42:27;;;;;;;43.58;23.73;;;;;;;10.50;31.93;101396.38;2078701;93;25922;-77
2022/03/15 03:46:10;;;;;;;38.30;22.65;;;;;;;10.48;31.91;101392.81;2073376;93;25332;-77
2022/03/15 03:49:35;;;;;;;40.10;22.75;;;;;;;10.46;31.94;101402.27;2088779;93;25815;-77
2022/03/15 03:53:07;;;;;;;42.88;23.75;;;;;;;10.44;31.97;101404.84;2097508;92;25760;-77
2022/03/15 03:56:34;;;;;;;38.95;22.62;;;;;;;10.43;31.95;101404.75;2094779;93;25779;-76
2022/03/15 03:59:57;;;;;;;37.08;23.70;;;;;;;10.40;31.99;101401.64;2095034;93;26606;-77
2022/03/15 04:03:28;;;;;;;45.50;25.08;;;;;;;10.39;31.99;101398.53;2095425;92;26010;-77
2022/03/15 04:07:15;;;;;;;45.28;23.18;;;;;;;10.36;32.01;101400.63;2094377;92;25872;-76
2022/03/15 04:11:11;;;;;;;36.88;22.45;;;;;;;10.34;32.04;101403.56;2081703;91;25781;-77
2022/03/15 04:14:43;;;;;;;40.58;23.07;;;;;;;10.32;32.06;101397.80;2160420;89;25816;-75
2022/03/15 04:18:10;;;;;;;41.37;24.05;;;;;;;10.29;32.06;101397.30;2171986;84;25890;-76
2022/03/15 04:21:35;;;;;;;43.80;23.22;;;;;;;10.28;32.03;101396.80;2328951;83;26347;-76
2022/03/15 04:24:58;;;;;;;35.30;23.00;;;;;;;10.25;32.07;101395.33;2319889;83;25689;-77
2022/03/15 04:28:22;;;;;;;36.85;22.55;;;;;;;10.24;32.08;101393.56;2325420;83;29247;-78
2022/03/15 04:31:47;;;;;;;36.45;22.62;;;;;;;10.23;32.10;101393.52;2318747;83;25800;-75
2022/03/15 04:35:29;;;;;;;38.20;22.58;;;;;;;10.23;32.10;101390.91;2288949;83;25757;-78
2022/03/15 04:39:03;;;;;;;31.80;21.87;;;;;;;10.21;32.09;101389.52;2173373;88;26174;-77
2022/03/15 04:42:42;;;;;;;42.67;24.50;;;;;;;10.19;32.10;101388.55;2155127;90;25778;-76
2022/03/15 04:46:27;;;;;;;37.93;23.35;;;;;;;10.18;32.11;101388.97;2107422;93;25702;-79
2022/03/15 04:50:15;;;;;;;40.60;23.45;;;;;;;10.16;32.11;101391.95;2095548;93;25909;-76
2022/03/15 04:53:42;;;;;;;41.23;23.27;;;;;;;10.15;32.16;101390.14;2114639;93;25739;-77
2022/03/15 04:57:03;;;;;;;35.60;21.90;;;;;;;10.14;32.12;101388.38;2068492;93;26006;-78
2022/03/15 05:00:24;;;;;;;36.08;22.70;;;;;;;10.14;32.13;101389.68;2010795;95;25697;-76
2022/03/15 05:03:45;;;;;;;37.70;22.37;;;;;;;10.14;32.12;101380.98;2027209;96;28202;-78
2022/03/15 05:07:08;;;;;;;40.25;23.62;;;;;;;10.15;32.11;101384.05;2040898;95;28237;-78
2022/03/15 05:14:44;;;;;;;39.95;22.75;;;;;;;10.15;32.11;101381.44;2056417;95;25956;-77
2022/03/15 05:18:13;;;;;;;37.40;22.30;;;;;;;10.16;32.09;101389.34;2067113;92;25814;-77
2022/03/15 05:21:43;;;;;;;38.75;22.15;;;;;;;10.18;32.08;101390.27;2112413;87;25803;-76
2022/03/15 05:25:26;;;;;;;;;;;;;;;;;;;;;
2022/03/15 05:28:54;;;;;;;38.25;22.60;;;;;;;10.24;32.03;101380.53;2039106;95;25728;-77
2022/03/15 05:32:17;;;;;;;38.80;22.27;;;;;;;10.28;32.01;101378.55;2058115;93;28233;-76
2022/03/15 05:35:52;;;;;;;41.15;22.93;;;;;;;10.32;31.96;101381.75;2142190;90;26018;-76
2022/03/15 05:39:13;;;;;;;36.15;21.12;;;;;;;10.37;31.99;101377.62;2239553;86;25646;-76
2022/03/15 05:42:34;;;;;;;33.78;21.20;;;;;;;10.43;31.94;101382.59;2232253;86;25974;-76
2022/03/15 05:46:17;;;;;;;32.42;20.92;;;;;;;10.48;31.92;101396.30;2209407;85;25705;-76
2022/03/15 05:49:44;;;;;;;33.05;20.50;;;;;;;10.53;31.91;101404.30;2273836;85;25695;-77
2022/03/15 05:53:08;;;;;;;38.48;20.88;;;;;;;10.58;31.94;101398.87;2285769;85;25589;-78
2022/03/15 05:56:45;;;;;;;;;;;;;;;;;;;;;
2022/03/15 06:00:12;;;;;;;29.90;19.32;;;;;;;10.70;32.01;101388.94;2212235;88;25835;-78
2022/03/15 06:04:11;;;;;;;;;;;;;;;;;;;;;
2022/03/15 06:07:57;;;;;;;31.40;20.05;;;;;;;10.82;32.15;101393.30;2211721;87;26395;-76
2022/03/15 06:11:19;;;;;;;42.45;21.12;;;;;;;10.90;32.16;101395.31;2187094;89;25972;-76
2022/03/15 06:15:04;;;;;;;35.03;20.72;;;;;;;10.96;32.06;101400.77;2176149;89;25889;-76
2022/03/15 06:18:34;;;;;;;37.85;20.62;;;;;;;11.01;32.20;101399.24;2169174;89;25775;-75
2022/03/15 06:22:17;;;;;;;38.02;21.33;;;;;;;11.10;32.25;101408.70;2188953;89;26417;-74
2022/03/15 06:25:49;;;;;;;;;;;;;;;;;;;;;
2022/03/15 06:29:07;;;;;;;34.78;21.60;;;;;;;11.26;32.35;101418.89;2258253;86;25330;-75
2022/03/15 06:32:36;;;;;;;32.93;20.07;;;;;;;11.39;32.46;101425.88;2261734;86;31019;-78
2022/03/15 06:36:11;;;;;;;35.92;21.20;;;;;;;11.52;32.32;101429.42;2247203;85;34851;-80
2022/03/15 06:39:29;;;;;;;37.03;20.35;;;;;;;11.67;32.21;101423.42;2251712;86;25787;-79
2022/03/15 06:42:52;;;;;;;39.98;21.25;;;;;;;11.87;32.10;101424.59;2262044;86;29097;-79
2022/03/15 06:46:14;;;;;;;39.40;22.30;;;;;;;12.03;31.92;101422.56;2287467;84;25795;-78
2022/03/15 06:49:43;;;;;;;33.73;20.90;;;;;;;12.22;31.77;101418.86;2232779;87;25773;-78
2022/03/15 06:53:43;;;;;;;35.63;20.13;;;;;;;12.40;31.68;101415.06;2331966;80;25777;-82
2022/03/15 06:57:14;;;;;;;35.90;21.00;;;;;;;12.51;31.54;101425.45;2417136;80;25208;-79
2022/03/15 07:00:47;;;;;;;34.80;21.35;;;;;;;12.61;31.53;101428.83;2410426;80;26240;-80
2022/03/15 07:04:35;;;;;;;38.88;22.00;;;;;;;12.68;31.41;101424.25;2247799;84;25901;-79
2022/03/15 07:07:55;;;;;;;33.78;20.12;;;;;;;12.77;31.49;101434.13;2233780;86;25927;-79
2022/03/15 07:11:23;;;;;;;34.80;21.42;;;;;;;12.88;31.33;101438.39;2243269;86;25889;-78
2022/03/15 07:15:07;;;;;;;;;;;;;;;;;;;;;
2022/03/15 07:18:33;;;;;;;28.38;18.37;;;;;;;13.09;31.30;101428.98;2234560;86;25714;-78
2022/03/15 07:26:08;;;;;;;26.37;18.17;;;;;;;13.32;31.17;101431.02;2164135;89;26316;-78
2022/03/15 07:29:48;;;;;;;27.65;18.25;;;;;;;13.46;31.15;101436.23;2165026;90;26183;-78
2022/03/15 07:33:13;;;;;;;30.02;17.98;;;;;;;13.60;31.08;101449.33;2165574;89;25816;-77
2022/03/15 07:36:57;;;;;;;29.80;17.65;;;;;;;13.82;31.03;101445.98;2165588;90;25650;-78
2022/03/15 07:40:27;;;;;;;26.05;17.55;;;;;;;15.67;30.32;101442.96;2163353;89;25794;-77
2022/03/15 07:43:53;;;;;;;34.65;18.10;;;;;;;18.51;28.53;101452.69;2160695;89;26383;-79
2022/03/15 07:47:15;;;;;;;23.40;17.42;;;;;;;20.82;26.43;101455.75;2154397;90;25682;-79
2022/03/15 07:50:44;;;;;;;26.85;17.15;;;;;;;22.60;24.70;101453.99;2163456;91;25850;-77
2022/03/15 07:54:04;;;;;;;20.82;15.80;;;;;;;24.25;23.11;101460.90;2241534;86;26031;-77
2022/03/15 07:57:34;;;;;;;17.87;15.35;;;;;;;25.83;21.77;101480.22;2218760;86;25773;-77
2022/03/15 08:01:02;;;;;;;19.40;14.95;;;;;;;27.22;20.57;101477.69;2201641;86;25872;-78
2022/03/15 08:04:24;;;;;;;18.48;14.68;;;;;;;28.55;19.47;101485.66;2234285;85;25441;-80
2022/03/15 08:07:44;;;;;;;19.50;14.87;;;;;;;29.64;18.65;101492.10;2308608;82;25865;-77
2022/03/15 08:11:07;;;;;;;14.83;13.23;;;;;;;30.63;17.91;101505.18;2352843;82;26328;-80
2022/03/15 08:14:33;;;;;;;14.18;12.75;;;;;;;31.53;17.39;101500.84;2358334;82;25708;-79
2022/03/15 08:17:59;;;;;;;12.70;11.57;;;;;;;32.18;16.80;101504.45;2351837;82;25818;-79
2022/03/15 08:21:52;;;;;;;14.90;12.85;;;;;;;31.61;16.84;101482.48;2359193;82;25823;-80
2022/03/15 08:25:14;;;;;;;14.47;12.05;;;;;;;32.10;16.81;101507.15;2329079;83;25701;-77
2022/03/15 08:28:55;;;;;;;13.53;11.53;;;;;;;32.38;16.43;101513.40;2348091;82;25789;-77
2022/03/15 08:32:29;;;;;;;14.90;11.55;;;;;;;31.60;16.84;101500.48;2287435;85;25843;-78
2022/03/15 08:35:51;;;;;;;14.95;11.57;;;;;;;30.76;17.45;101500.19;2269240;85;26213;-77
2022/03/15 08:39:15;;;;;;;11.28;10.20;;;;;;;29.85;18.07;101490.38;2314574;83;26456;-79
2022/03/15 08:43:09;;;;;;;16.87;10.35;;;;;;;28.89;18.86;101487.19;2334043;82;25756;-78
2022/03/15 08:46:34;;;;;;;10.93;9.90;;;;;;;28.11;19.60;101488.44;2234360;87;32574;-77
2022/03/15 08:49:57;;;;;;;10.85;9.85;;;;;;;27.36;20.49;101467.91;2231889;87;25822;-78
2022/03/15 08:56:56;;;;;;;11.00;9.90;;;;;;;26.79;21.33;101463.63;2119126;91;25754;-77
2022/03/15 09:00:55;;;;;;;14.13;9.98;;;;;;;26.61;21.78;101458.78;2127477;91;25777;-79
2022/03/15 09:04:17;;;;;;;10.10;9.15;;;;;;;26.65;22.01;101456.44;2113292;90;26294;-80
2022/03/15 09:07:52;;;;;;;9.85;8.88;;;;;;;27.41;21.93;101451.27;2134064;91;25775;-79
2022/03/15 09:11:17;;;;;;;10.05;9.13;;;;;;;28.17;21.19;101456.06;2131636;90;26231;-76
2022/03/15 09:14:43;;;;;;;14.68;9.10;;;;;;;29.01;20.51;101453.23;2140708;89;25786;-77
2022/03/15 09:18:08;;;;;;;9.85;9.05;;;;;;;29.39;19.91;101452.27;2146994;87;26003;-79
2022/03/15 09:22:03;;;;;;;11.35;10.08;;;;;;;29.96;19.57;101452.78;2207139;85;25742;-77
2022/03/15 09:25:49;;;;;;;10.68;9.28;;;;;;;30.46;19.19;101460.61;2222003;86;26014;-79
2022/03/15 09:33:07;;;;;;;8.88;8.00;;;;;;;30.09;18.91;101462.11;2137428;89;26224;-80
2022/03/15 09:36:36;;;;;;;11.63;8.55;;;;;;;29.34;19.17;101458.30;2164141;90;25882;-80
2022/03/15 09:40:33;;;;;;;11.05;8.55;;;;;;;28.51;19.43;101451.83;2161300;90;25877;-81
2022/03/15 09:44:12;;;;;;;10.32;9.40;;;;;;;27.68;19.80;101455.80;2263174;86;25684;-77
2022/03/15 09:51:27;;;;;;;10.35;9.15;;;;;;;25.82;20.91;101444.20;2200323;88;25828;-77
2022/03/15 09:55:00;;;;;;;10.03;8.88;;;;;;;25.22;21.48;101454.78;2263613;84;25703;-77
2022/03/15 09:58:49;;;;;;;9.70;8.83;;;;;;;24.76;22.03;101457.41;2280387;84;26739;-77
2022/03/15 10:02:26;;;;;;;15.72;9.95;;;;;;;24.32;22.55;101455.89;2255186;86;25880;-77
2022/03/15 10:05:54;;;;;;;11.22;10.23;;;;;;;23.82;23.16;101464.19;2251456;85;25796;-75
2022/03/15 10:09:32;;;;;;;10.93;9.83;;;;;;;23.40;23.58;101454.52;2246440;85;26176;-75
2022/03/15 10:13:00;;;;;;;11.28;8.98;;;;;;;;;;2246350;85;25713;-76
2022/03/15 10:16:36;;;;;;;10.88;9.78;;;;;;;22.75;24.61;101460.97;2241700;86;25825;-77
2022/03/15 10:20:12;;;;;;;10.53;9.53;;;;;;;22.47;25.07;101456.32;2238108;87;25747;-79
2022/03/15 10:27:19;;;;;;;10.10;9.10;;;;;;;21.93;25.82;101450.48;2132696;90;25923;-78
2022/03/15 10:30:47;;;;;;;10.53;8.43;;;;;;;21.73;26.19;101447.95;2123471;92;25843;-77
2022/03/15 10:34:30;;;;;;;9.20;8.30;;;;;;;21.70;26.78;101440.03;2140147;91;25971;-79
2022/03/15 10:38:00;;;;;;;13.35;9.38;;;;;;;21.62;26.95;101438.72;2126879;91;25811;-78
2022/03/15 10:42:12;;;;;;;9.55;8.70;;;;;;;21.47;27.14;101435.28;2126096;91;25799;-78
2022/03/15 10:46:17;;;;;;;8.40;7.70;;;;;;;21.54;27.30;101427.27;2168539;90;25890;-78
2022/03/15 10:50:17;;;;;;;9.35;8.43;;;;;;;22.60;27.10;101415.91;2163641;87;25808;-79
2022/03/15 10:54:11;;;;;;;8.73;8.03;;;;;;;23.70;26.40;101416.00;2140953;90;25747;-80
2022/03/15 10:58:12;;;;;;;7.90;7.28;;;;;;;24.02;25.82;101423.95;2160248;89;25887;-79
2022/03/15 11:05:50;;;;;;;7.58;6.87;;;;;;;24.18;25.44;101408.61;2077722;92;25818;-79
2022/03/15 11:13:44;;;;;;;7.22;6.62;;;;;;;25.36;25.08;101396.64;1975463;97;25867;-79
2022/03/15 11:17:38;;;;;;;6.15;5.65;;;;;;;26.16;24.58;101388.16;1955629;98;25844;-79
2022/03/15 11:21:19;;;;;;;6.80;6.10;;;;;;;26.75;24.00;101395.55;1980010;98;26699;-80
2022/03/15 11:25:20;;;;;;;6.40;5.95;;;;;;;27.37;23.41;101398.27;1928687;101;26029;-79
2022/03/15 11:29:18;;;;;;;6.97;5.75;;;;;;;27.71;23.01;101388.72;1924417;100;25845;-79
2022/03/15 11:32:47;;;;;;;5.97;5.37;;;;;;;27.92;22.92;101390.33;1927795;99;25952;-78
2022/03/15 11:36:15;;;;;;;7.05;5.37;;;;;;;28.59;22.43;101365.27;1949731;99;26017;-80
2022/03/15 11:41:38;;;;;;;5.40;5.00;;;;;;;29.07;22.04;101376.97;1936649;99;25886;-78
2022/03/15 11:45:20;;;;;;;5.83;5.33;;;;;;;29.41;21.75;101373.85;2052192;92;25897;-80
2022/03/15 11:49:42;;;;;;;8.23;5.62;;;;;;;29.39;21.51;101365.83;2086924;92;25849;-79
2022/03/15 11:54:14;;;;;;;8.25;5.78;;;;;;;29.22;21.41;101362.06;2100753;93;25754;-79
2022/03/15 11:58:09;;;;;;;5.45;5.05;;;;;;;28.58;21.33;101361.27;2184024;88;25877;-79
2022/03/15 12:02:16;;;;;;;7.08;6.37;;;;;;;28.10;21.46;101356.19;2038759;95;26083;-78
2022/03/15 12:05:55;;;;;;;6.75;4.97;;;;;;;28.00;21.37;101346.70;2030199;95;25739;-79
2022/03/15 12:09:37;;;;;;;5.28;4.80;;;;;;;27.48;21.53;101351.06;2059472;93;25926;-82
2022/03/15 12:16:51;;;;;;;3.90;3.60;;;;;;;28.24;21.48;101335.13;2021622;95;25783;-80
2022/03/15 12:20:21;;;;;;;7.83;5.87;;;;;;;28.13;21.50;101331.09;2021686;95;25889;-78
2022/03/15 12:24:01;;;;;;;5.92;5.45;;;;;;;28.28;21.59;101328.33;2026804;96;25971;-80
2022/03/15 12:27:22;;;;;;;5.83;5.15;;;;;;;28.69;21.34;101330.45;2020250;96;25460;-78
2022/03/15 12:30:53;;;;;;;4.50;4.20;;;;;;;29.10;21.09;101327.17;2031604;95;25826;-78
2022/03/15 12:34:35;;;;;;;;;;;;;;;;;;;;;
2022/03/15 12:42:22;;;;;;;4.65;4.25;;;;;;;30.03;20.28;101317.14;1841448;105;25935;-83
2022/03/15 12:46:02;;;;;;;;;;;;;;;;;;;;;
2022/03/15 12:49:29;;;;;;;4.87;4.55;;;;;;;29.56;19.92;101311.90;1803495;105;25644;-79
2022/03/15 12:53:52;;;;;;;;;;;;;;;;;;;;;
2022/03/15 12:57:49;;;;;;;4.53;4.12;;;;;;;29.51;19.94;101298.66;1813923;107;25908;-85
2022/03/15 13:01:17;;;;;;;5.40;4.05;;;;;;;29.13;19.98;101294.84;1760819;110;25979;-82
2022/03/15 13:05:02;;;;;;;5.85;4.78;;;;;;;28.74;20.14;101284.65;1768665;110;26299;-79
2022/03/15 13:12:38;;;;;;;5.00;3.98;;;;;;;28.06;20.86;101290.68;1709291;114;26195;-81
2022/03/15 13:16:22;;;;;;;;;;;;;;;;;;;;;
2022/03/15 13:20:25;;;;;;;4.90;4.50;;;;;;;28.00;21.50;101271.19;1689819;114;25881;-80
2022/03/15 13:24:20;;;;;;;7.03;4.60;;;;;;;28.25;21.43;101269.88;1698850;114;25929;-84
2022/03/15 13:28:26;;;;;;;5.78;4.92;;;;;;;28.46;21.30;101271.39;1705368;112;29079;-81
2022/03/15 13:31:50;;;;;;;4.83;4.40;;;;;;;28.46;21.06;101268.71;1695526;113;25929;-80
2022/03/15 13:35:20;;;;;;;4.72;3.77;;;;;;;28.33;21.08;101264.22;1713737;112;25855;-79
2022/03/15 13:38:54;;;;;;;7.17;4.62;;;;;;;28.12;21.08;101256.48;1787246;108;25852;-79
2022/03/15 13:42:19;;;;;;;5.47;5.03;;;;;;;27.67;21.21;101254.41;1902094;97;26103;-79
2022/03/15 13:45:56;;;;;;;6.10;5.37;;;;;;;27.14;21.39;101253.51;2000955;96;26794;-77
2022/03/15 13:49:55;;;;;;;6.22;5.80;;;;;;;26.64;21.62;101245.18;2089341;89;25830;-78
2022/03/15 13:53:31;;;;;;;5.37;4.97;;;;;;;26.04;21.94;101242.80;2200860;88;25831;-79
2022/03/15 13:56:54;;;;;;;6.00;5.53;;;;;;;25.47;22.25;101244.68;2191324;89;25889;-72
2022/03/15 14:00:20;;;;;;;10.45;9.65;;;;;;;25.12;22.63;101249.95;2153103;89;25920;-72
2022/03/15 14:03:42;;;;;;;11.28;10.28;;;;;;;24.03;22.72;101234.80;2232329;81;25872;-72
2022/03/15 14:07:07;;;;;;;11.22;10.43;;;;;;;22.78;23.73;101243.34;2443263;80;25707;-73
2022/03/15 14:10:28;;;;;;;11.35;10.45;;;;;;;21.73;24.73;101239.59;2419316;79;25693;-74
2022/03/15 14:14:05;;;;;;;10.93;10.13;;;;;;;20.80;25.68;101230.94;2406860;79;25748;-72
2022/03/15 14:17:31;;;;;;;11.20;10.20;;;;;;;20.14;26.61;101229.80;2409914;79;25663;-75
2022/03/15 14:20:51;;;;;;;11.50;10.43;;;;;;;19.49;27.56;101224.53;2412246;79;25634;-76
2022/03/15 14:24:24;;;;;;;11.60;10.70;;;;;;;19.01;28.17;101228.00;2420862;79;26417;-75
2022/03/15 14:27:45;;;;;;;10.53;9.68;;;;;;;18.55;28.82;101222.52;2437778;80;25764;-72
2022/03/15 14:31:07;;;;;;;11.38;10.40;;;;;;;18.52;29.24;101223.81;2448758;80;25841;-72
2022/03/15 14:34:31;;;;;;;11.90;10.72;;;;;;;18.55;29.31;101223.84;2398043;80;25582;-72
2022/03/15 14:38:13;;;;;;;13.28;10.55;;;;;;;18.42;29.50;101221.57;2402019;81;25659;-71
2022/03/15 14:41:34;;;;;;;12.13;11.12;;;;;;;18.31;29.76;101207.44;2458908;79;25838;-81
2022/03/15 14:44:56;;;;;;;12.58;7.85;;;;;;;18.21;29.84;101206.51;2467807;79;25691;-76
2022/03/15 14:48:38;;;;;;;8.18;7.10;;;;;;;18.53;31.11;101209.77;2460998;79;25659;-77
2022/03/15 14:52:18;;;;;;;9.05;8.00;;;;;;;18.93;30.97;101217.38;2414812;80;26239;-77
2022/03/15 14:56:16;;;;;;;;;;;;;;;;;;;;;
2022/03/15 14:59:54;;;;;;;;;;;;;;;;;;;;;
2022/03/15 15:03:30;;;;;;;;;;;;;;;19.62;30.81;101194.13;2354393;81;25984;-77
2022/03/15 15:07:11;;;;;;;5.97;5.42;;;;;;;19.78;30.77;101191.50;2234645;87;25742;-76
2022/03/15 15:10:39;;;;;;;5.67;5.17;;;;;;;19.95;30.78;101188.81;2104803;92;25805;-77
2022/03/15 15:14:19;;;;;;;6.83;5.50;;;;;;;20.11;30.92;101186.99;2105159;91;26421;-79
2022/03/15 15:17:48;;;;;;;6.87;5.87;;;;;;;20.20;31.01;101187.42;2098940;92;26094;-77
2022/03/15 15:21:40;;;;;;;6.78;6.03;;;;;;;20.24;31.01;101180.77;2062108;93;25754;-79
2022/03/15 15:25:41;;;;;;;7.85;6.35;;;;;;;20.27;31.18;101176.80;2031623;95;25985;-78
2022/03/15 15:29:25;;;;;;;10.00;6.12;;;;;;;20.21;31.20;101173.29;2039245;94;26064;-78
2022/03/15 15:36:36;;;;;;;8.53;7.83;;;;;;;19.95;31.05;101171.62;2390508;81;26202;-78
2022/03/15 15:40:20;;;;;;;10.90;7.35;;;;;;;19.81;31.12;101182.68;2364566;82;29584;-77
2022/03/15 15:43:46;;;;;;;8.93;6.85;;;;;;;19.72;31.26;101176.95;2364654;83;25713;-79
2022/03/15 15:47:09;;;;;;;7.40;6.70;;;;;;;19.65;31.35;101176.52;2373879;82;26317;-86
2022/03/15 15:50:47;;;;;;;7.70;6.85;;;;;;;19.61;31.39;101173.82;2394254;82;25659;-79
2022/03/15 15:54:17;;;;;;;6.90;5.97;;;;;;;19.57;31.42;101172.94;2337968;83;25741;-79
2022/03/15 15:57:45;;;;;;;6.12;5.55;;;;;;;19.52;31.43;101168.99;2354328;83;25780;-79
2022/03/15 16:01:32;;;;;;;6.47;5.97;;;;;;;19.46;31.43;101166.34;2325144;84;25951;-80
2022/03/15 16:04:46;;;;;;;6.47;5.87;;;;;;;19.39;31.44;101168.55;2314505;83;25202;-81
2022/03/15 16:08:09;;;;;;;6.15;5.55;;;;;;;19.32;31.47;101172.95;2274716;85;25672;-81
2022/03/15 16:11:31;;;;;;;5.20;4.80;;;;;;;19.25;31.48;101168.55;2343753;83;25900;-81
2022/03/15 16:14:55;;;;;;;5.45;4.95;;;;;;;19.19;31.51;101161.94;2364162;83;25726;-79
2022/03/15 16:18:42;;;;;;;;;;;;;;;;;;;;;
2022/03/15 16:22:02;;;;;;;5.65;4.90;;;;;;;19.07;31.58;101167.23;2252742;84;25488;-80
2022/03/15 16:25:23;;;;;;;5.42;5.03;;;;;;;19.00;31.64;101162.78;2229750;88;25814;-79
2022/03/15 16:28:49;;;;;;;6.22;4.33;;;;;;;18.94;31.65;101162.80;2230234;88;25774;-78
2022/03/15 16:32:21;;;;;;;4.90;4.50;;;;;;;18.87;31.69;101162.78;2230409;88;25648;-79
2022/03/15 16:35:49;;;;;;;5.25;4.85;;;;;;;18.82;31.75;101167.16;2221485;88;25768;-82
2022/03/15 16:39:13;;;;;;;4.17;3.72;;;;;;;18.77;31.79;101162.77;2216255;87;25787;-80
2022/03/15 16:42:34;;;;;;;5.35;4.33;;;;;;;18.71;31.84;101162.72;2175262;90;25849;-77
2022/03/15 16:45:55;;;;;;;4.85;4.45;;;;;;;18.66;31.85;101154.76;2181786;87;25819;-80
2022/03/15 16:49:16;;;;;;;5.30;4.22;;;;;;;18.60;31.90;101152.13;2216687;87;30970;-79
2022/03/15 16:52:41;;;;;;;7.12;5.00;;;;;;;18.55;31.92;101153.85;2196998;87;25891;-80
2022/03/15 16:56:03;;;;;;;5.70;4.70;;;;;;;18.51;31.98;101154.28;2217182;87;25758;-79
2022/03/15 16:59:55;;;;;;;5.03;4.62;;;;;;;18.46;32.00;101150.77;2229592;88;25726;-79
2022/03/15 17:05:40;;;;;;;4.90;4.50;;;;;;;18.41;32.04;101149.84;2239873;87;25740;-80
2022/03/15 17:06:39;;;;;;;5.08;4.58;;;;;;;18.36;32.09;101143.24;2259273;87;25151;-80
2022/03/15 17:10:08;;;;;;;5.33;4.90;;;;;;;18.31;32.13;101144.97;2266915;86;30942;-79
2022/03/15 17:13:43;;;;;;;4.50;4.20;;;;;;;18.27;32.18;101140.56;2267041;87;25684;-78
2022/03/15 17:17:45;;;;;;;5.58;5.03;;;;;;;18.22;32.20;101138.32;2184423;89;26008;-78
2022/03/15 17:21:16;;;;;;;5.58;4.65;;;;;;;18.17;32.26;101140.95;2187373;89;26378;-80
2022/03/15 17:28:30;;;;;;;5.85;5.22;;;;;;;18.07;32.35;101135.19;2186616;90;25742;-80
2022/03/15 17:32:02;;;;;;;5.30;4.90;;;;;;;18.03;32.41;101129.45;2090893;93;25467;-79
2022/03/15 17:35:59;;;;;;;5.67;5.17;;;;;;;17.99;32.46;101123.73;2121644;91;25919;-79
2022/03/15 17:39:37;;;;;;;5.58;5.05;;;;;;;17.94;32.49;101119.72;2100821;93;26032;-80
2022/03/15 17:43:20;;;;;;;10.38;5.00;;;;;;;17.90;32.52;101115.31;2105962;92;25770;-78
2022/03/15 17:50:37;;;;;;;8.08;5.30;;;;;;;17.81;32.63;101094.16;2096108;93;25735;-79
2022/03/15 17:58:21;;;;;;;7.40;5.12;;;;;;;17.74;32.71;101096.28;2138612;89;25860;-76